Skykomish, WA

8:43 PM PST on December 26, 2014 (GMT -0800)
Renton Municipal | Change Station
CLOSE
Current Station
Airport
Location: Renton,
Elevation: 30 ft
Nearby Weather Stations
Active Advisory: Winter Storm Warning

Elev 30 ft 47.49 °N, 122.22 °W | Updated 50 minutes ago

Partly Cloudy
Partly Cloudy
39 °F
Feels Like 36 °F
N
5
Wind Variable Wind from SE

Today
High -- | Low -- °F
--% Chance of Precip.
Yesterday
High -- | Low -- °F
Precip. -- in
7:53 AM 4:18 PM
Waxing Crescent, 32% visible
Pressure 30.37 in
Visibility 8.0 miles
Clouds Overcast 1900 ft
Windchill 36 °F
Dew Point 37 °F
Humidity 93%
Rainfall 0.00 in
Snow Depth Not available.
UV 0 out of 12
Pollen 1.40 out of 12
Air Quality Not available.
Flu Activity Not available.
METAR KRNT 270353Z 13004KT 8SM OVC019 04/03 A3035 RMK AO2 SLP282 T00390028

More Conditions Fewer Conditions

Pressure 30.37 in
Visibility 8.0 miles
Clouds Overcast 1900 ft
Windchill 36 °F
Dew Point 37 °F
Humidity 93%
Rainfall 0.00 in
Snow Depth Not available.
UV 0 out of 12
Pollen 1.40 out of 12
Air Quality Not available.
Flu Activity Not available.
METAR KRNT 270353Z 13004KT 8SM OVC019 04/03 A3035 RMK AO2 SLP282 T00390028

More Conditions Fewer Conditions

10-Day Weather Forecast

Almanac

Astronomy

Dec. 26, 2014 Rise Set
Actual Time
Civil Twilight
Nautical Twilight
Astronomical Twilight
Moon
Length of Visible Light
Length of Day
Tomorrow will be .
, % of the Moon is Illuminated

Today's Extremes

State Highs State Lows

Community

WunderPhotos

Upload Photos

1,780,847 photos uploaded!

WunderBlogs® & News

Nearby

Air Quality

  Air Quality AQ Index Pollutant
Not available.

Snow Depth

Station Depth Elevation

Earthquake Activity

City Distance Mag. Time & Date
Minimum magnitude displayed is 2.5.

Coastal Water Temperatures

Place Temperature

Nearby Weather Stations